aviador You're here:

KCBM Decoded Metar

COLOMBUS in MS, USA
Report Time2017-11-24 08:56:00
UTC Time2017-11-24 09:16:16
Flight Rules vfr VFR
WindCalm
Visibility9999 m
Phenomena:N/A
Clouds:N/A
CeilingNone
Temp-2°C (ISA -17)
Dew Point-2°C (100% RH)
AAT-4.3°C
QNH1017 hPa
Density Alt-1,877 ft
Elevation220 ft
Report Wrong Elevation
Raw Report
KCBM 240856Z AUTO 00000KT 10SM CLR M02/M02 A3003 RMK AO2 SLP173
T10211022 58002 TSNO $=

Extra information for KCBM:More info

Metar Taf Metar & Taf Last 4 Metars F.Rules Stats Wind Profile Meteogram Temp Stats Airport Information Weather charts Add Link Nearby VenuesMetar ALERT Operation Metar Decoded Social comments

AIRNAV info for KCBM